sensor_id;sensor_type;location;lat;lon;timestamp;P1;durP1;ratioP1;P2;durP2;ratioP2
8478;SDS011;4276;49.354;6.804;2023-04-08T00:02:25;11.23;;;10.13;;
8478;SDS011;4276;49.354;6.804;2023-04-08T00:04:52;9.95;;;9.10;;
8478;SDS011;4276;49.354;6.804;2023-04-08T00:07:19;11.20;;;10.05;;
8478;SDS011;4276;49.354;6.804;2023-04-08T00:09:45;10.38;;;9.38;;
8478;SDS011;4276;49.354;6.804;2023-04-08T00:12:12;10.73;;;9.63;;
8478;SDS011;4276;49.354;6.804;2023-04-08T00:14:38;11.65;;;10.50;;
8478;SDS011;4276;49.354;6.804;2023-04-08T00:17:07;10.50;;;9.32;;
8478;SDS011;4276;49.354;6.804;2023-04-08T00:19:34;11.43;;;10.32;;
8478;SDS011;4276;49.354;6.804;2023-04-08T00:22:01;11.82;;;10.65;;
8478;SDS011;4276;49.354;6.804;2023-04-08T00:24:28;11.00;;;9.85;;
8478;SDS011;4276;49.354;6.804;2023-04-08T00:26:54;11.43;;;10.15;;
8478;SDS011;4276;49.354;6.804;2023-04-08T00:29:21;10.65;;;9.55;;
8478;SDS011;4276;49.354;6.804;2023-04-08T00:31:50;11.48;;;10.38;;
8478;SDS011;4276;49.354;6.804;2023-04-08T00:34:17;10.90;;;9.82;;
8478;SDS011;4276;49.354;6.804;2023-04-08T00:36:44;9.73;;;8.82;;
8478;SDS011;4276;49.354;6.804;2023-04-08T00:39:12;9.63;;;8.82;;
8478;SDS011;4276;49.354;6.804;2023-04-08T00:41:39;10.68;;;9.57;;
8478;SDS011;4276;49.354;6.804;2023-04-08T00:44:06;11.20;;;10.20;;
8478;SDS011;4276;49.354;6.804;2023-04-08T00:46:34;11.63;;;10.45;;
8478;SDS011;4276;49.354;6.804;2023-04-08T00:49:03;10.82;;;9.82;;
8478;SDS011;4276;49.354;6.804;2023-04-08T00:51:29;11.73;;;10.63;;
8478;SDS011;4276;49.354;6.804;2023-04-08T00:53:56;10.13;;;9.25;;
8478;SDS011;4276;49.354;6.804;2023-04-08T00:56:22;13.32;;;11.93;;
8478;SDS011;4276;49.354;6.804;2023-04-08T00:58:49;12.88;;;11.57;;
8478;SDS011;4276;49.354;6.804;2023-04-08T01:01:21;12.18;;;10.98;;
8478;SDS011;4276;49.354;6.804;2023-04-08T01:06:43;11.70;;;10.50;;
8478;SDS011;4276;49.354;6.804;2023-04-08T01:09:30;10.00;;;9.10;;
8478;SDS011;4276;49.354;6.804;2023-04-08T01:11:58;10.35;;;9.35;;
8478;SDS011;4276;49.354;6.804;2023-04-08T01:14:29;9.10;;;8.23;;
8478;SDS011;4276;49.354;6.804;2023-04-08T01:16:57;9.32;;;8.52;;
8478;SDS011;4276;49.354;6.804;2023-04-08T01:19:27;9.57;;;8.77;;
8478;SDS011;4276;49.354;6.804;2023-04-08T01:24:42;9.63;;;8.65;;
8478;SDS011;4276;49.354;6.804;2023-04-08T01:27:09;8.93;;;8.13;;
8478;SDS011;4276;49.354;6.804;2023-04-08T01:29:36;8.88;;;7.97;;
8478;SDS011;4276;49.354;6.804;2023-04-08T01:32:04;9.82;;;8.90;;
8478;SDS011;4276;49.354;6.804;2023-04-08T01:34:33;8.60;;;7.90;;
8478;SDS011;4276;49.354;6.804;2023-04-08T01:37:00;9.00;;;8.20;;
8478;SDS011;4276;49.354;6.804;2023-04-08T01:39:27;9.25;;;7.95;;
8478;SDS011;4276;49.354;6.804;2023-04-08T01:41:55;8.85;;;8.02;;
8478;SDS011;4276;49.354;6.804;2023-04-08T01:44:24;8.75;;;7.95;;
8478;SDS011;4276;49.354;6.804;2023-04-08T01:46:51;8.20;;;7.47;;
8478;SDS011;4276;49.354;6.804;2023-04-08T01:49:19;8.50;;;7.70;;
8478;SDS011;4276;49.354;6.804;2023-04-08T01:51:49;9.15;;;8.25;;
8478;SDS011;4276;49.354;6.804;2023-04-08T01:54:17;9.07;;;8.18;;
8478;SDS011;4276;49.354;6.804;2023-04-08T01:56:43;9.02;;;8.13;;
8478;SDS011;4276;49.354;6.804;2023-04-08T01:59:12;9.48;;;8.40;;
8478;SDS011;4276;49.354;6.804;2023-04-08T02:01:41;9.15;;;8.45;;
8478;SDS011;4276;49.354;6.804;2023-04-08T02:04:09;9.48;;;8.63;;
8478;SDS011;4276;49.354;6.804;2023-04-08T02:06:36;9.27;;;8.48;;
8478;SDS011;4276;49.354;6.804;2023-04-08T02:09:02;9.10;;;8.20;;
8478;SDS011;4276;49.354;6.804;2023-04-08T02:11:30;8.85;;;8.07;;
8478;SDS011;4276;49.354;6.804;2023-04-08T02:13:57;9.02;;;8.23;;
8478;SDS011;4276;49.354;6.804;2023-04-08T02:19:10;8.25;;;7.55;;
8478;SDS011;4276;49.354;6.804;2023-04-08T02:21:47;8.93;;;8.02;;
8478;SDS011;4276;49.354;6.804;2023-04-08T02:24:16;9.45;;;8.60;;
8478;SDS011;4276;49.354;6.804;2023-04-08T02:26:43;9.98;;;8.95;;
8478;SDS011;4276;49.354;6.804;2023-04-08T02:29:11;10.65;;;9.68;;
8478;SDS011;4276;49.354;6.804;2023-04-08T02:31:39;10.15;;;9.15;;
8478;SDS011;4276;49.354;6.804;2023-04-08T02:34:08;9.32;;;8.43;;
8478;SDS011;4276;49.354;6.804;2023-04-08T02:36:35;9.02;;;8.23;;
8478;SDS011;4276;49.354;6.804;2023-04-08T02:39:02;9.85;;;8.98;;
8478;SDS011;4276;49.354;6.804;2023-04-08T02:41:29;9.95;;;9.05;;
8478;SDS011;4276;49.354;6.804;2023-04-08T02:43:56;8.63;;;7.72;;
8478;SDS011;4276;49.354;6.804;2023-04-08T02:46:23;11.02;;;9.80;;
8478;SDS011;4276;49.354;6.804;2023-04-08T02:48:49;11.98;;;9.73;;
8478;SDS011;4276;49.354;6.804;2023-04-08T02:51:16;14.55;;;11.38;;
8478;SDS011;4276;49.354;6.804;2023-04-08T02:53:42;13.93;;;11.20;;
8478;SDS011;4276;49.354;6.804;2023-04-08T02:56:09;15.35;;;12.15;;
8478;SDS011;4276;49.354;6.804;2023-04-08T02:58:36;15.95;;;13.20;;
8478;SDS011;4276;49.354;6.804;2023-04-08T03:01:03;17.63;;;12.75;;
8478;SDS011;4276;49.354;6.804;2023-04-08T03:03:30;13.55;;;11.45;;
8478;SDS011;4276;49.354;6.804;2023-04-08T03:05:57;11.80;;;10.57;;
8478;SDS011;4276;49.354;6.804;2023-04-08T03:08:24;12.95;;;10.50;;
8478;SDS011;4276;49.354;6.804;2023-04-08T03:10:51;10.88;;;9.77;;
8478;SDS011;4276;49.354;6.804;2023-04-08T03:13:17;10.70;;;9.60;;
8478;SDS011;4276;49.354;6.804;2023-04-08T03:15:44;11.18;;;10.07;;
8478;SDS011;4276;49.354;6.804;2023-04-08T03:18:12;9.60;;;8.65;;
8478;SDS011;4276;49.354;6.804;2023-04-08T03:20:38;9.02;;;8.10;;
8478;SDS011;4276;49.354;6.804;2023-04-08T03:23:04;9.15;;;8.25;;
8478;SDS011;4276;49.354;6.804;2023-04-08T03:25:31;9.73;;;8.52;;
8478;SDS011;4276;49.354;6.804;2023-04-08T03:27:57;9.98;;;8.98;;
8478;SDS011;4276;49.354;6.804;2023-04-08T03:30:24;10.48;;;9.40;;
8478;SDS011;4276;49.354;6.804;2023-04-08T03:32:51;10.68;;;9.57;;
8478;SDS011;4276;49.354;6.804;2023-04-08T03:35:18;9.57;;;8.65;;
8478;SDS011;4276;49.354;6.804;2023-04-08T03:37:44;9.82;;;8.93;;
8478;SDS011;4276;49.354;6.804;2023-04-08T03:40:12;8.90;;;8.02;;
8478;SDS011;4276;49.354;6.804;2023-04-08T03:42:38;9.15;;;8.25;;
8478;SDS011;4276;49.354;6.804;2023-04-08T03:45:05;8.60;;;7.65;;
8478;SDS011;4276;49.354;6.804;2023-04-08T03:47:32;8.30;;;7.60;;
8478;SDS011;4276;49.354;6.804;2023-04-08T03:49:59;9.13;;;8.32;;
8478;SDS011;4276;49.354;6.804;2023-04-08T03:52:25;8.52;;;7.72;;
8478;SDS011;4276;49.354;6.804;2023-04-08T03:54:51;8.50;;;7.70;;
8478;SDS011;4276;49.354;6.804;2023-04-08T03:57:18;11.88;;;10.75;;
8478;SDS011;4276;49.354;6.804;2023-04-08T03:59:44;16.63;;;11.75;;
8478;SDS011;4276;49.354;6.804;2023-04-08T04:02:11;12.50;;;10.90;;
8478;SDS011;4276;49.354;6.804;2023-04-08T04:04:38;17.67;;;13.38;;
8478;SDS011;4276;49.354;6.804;2023-04-08T04:07:04;15.55;;;12.80;;
8478;SDS011;4276;49.354;6.804;2023-04-08T04:09:30;13.90;;;11.38;;
8478;SDS011;4276;49.354;6.804;2023-04-08T04:11:57;13.45;;;11.88;;
8478;SDS011;4276;49.354;6.804;2023-04-08T04:14:23;13.90;;;11.55;;
8478;SDS011;4276;49.354;6.804;2023-04-08T04:16:50;12.05;;;10.88;;
8478;SDS011;4276;49.354;6.804;2023-04-08T04:19:16;10.95;;;9.85;;
8478;SDS011;4276;49.354;6.804;2023-04-08T04:21:43;12.95;;;10.00;;
8478;SDS011;4276;49.354;6.804;2023-04-08T04:24:09;10.20;;;9.20;;
8478;SDS011;4276;49.354;6.804;2023-04-08T04:26:36;9.07;;;8.27;;
8478;SDS011;4276;49.354;6.804;2023-04-08T04:29:02;11.60;;;9.52;;
8478;SDS011;4276;49.354;6.804;2023-04-08T04:31:29;9.77;;;8.82;;
8478;SDS011;4276;49.354;6.804;2023-04-08T04:33:55;9.68;;;8.45;;
8478;SDS011;4276;49.354;6.804;2023-04-08T04:36:22;9.63;;;8.73;;
8478;SDS011;4276;49.354;6.804;2023-04-08T04:38:48;10.77;;;9.10;;
8478;SDS011;4276;49.354;6.804;2023-04-08T04:41:16;9.25;;;8.40;;
8478;SDS011;4276;49.354;6.804;2023-04-08T04:43:42;10.40;;;9.38;;
8478;SDS011;4276;49.354;6.804;2023-04-08T04:46:09;9.82;;;8.93;;
8478;SDS011;4276;49.354;6.804;2023-04-08T04:48:36;9.07;;;8.18;;
8478;SDS011;4276;49.354;6.804;2023-04-08T04:51:02;10.30;;;9.18;;
8478;SDS011;4276;49.354;6.804;2023-04-08T04:53:29;10.05;;;9.05;;
8478;SDS011;4276;49.354;6.804;2023-04-08T04:55:56;9.27;;;8.45;;
8478;SDS011;4276;49.354;6.804;2023-04-08T04:58:23;10.40;;;9.38;;
8478;SDS011;4276;49.354;6.804;2023-04-08T05:00:49;10.93;;;9.88;;
8478;SDS011;4276;49.354;6.804;2023-04-08T05:03:16;9.88;;;8.95;;
8478;SDS011;4276;49.354;6.804;2023-04-08T05:05:42;9.45;;;8.55;;
8478;SDS011;4276;49.354;6.804;2023-04-08T05:08:09;9.20;;;8.30;;
8478;SDS011;4276;49.354;6.804;2023-04-08T05:10:36;9.15;;;8.20;;
8478;SDS011;4276;49.354;6.804;2023-04-08T05:13:02;8.65;;;7.85;;
8478;SDS011;4276;49.354;6.804;2023-04-08T05:15:29;8.27;;;7.47;;
8478;SDS011;4276;49.354;6.804;2023-04-08T05:17:56;8.27;;;7.55;;
8478;SDS011;4276;49.354;6.804;2023-04-08T05:20:22;7.93;;;7.22;;
8478;SDS011;4276;49.354;6.804;2023-04-08T05:22:49;8.52;;;7.72;;
8478;SDS011;4276;49.354;6.804;2023-04-08T05:25:15;7.65;;;6.95;;
8478;SDS011;4276;49.354;6.804;2023-04-08T05:27:42;8.45;;;7.07;;
8478;SDS011;4276;49.354;6.804;2023-04-08T05:30:08;7.35;;;6.70;;
8478;SDS011;4276;49.354;6.804;2023-04-08T05:32:35;7.13;;;6.43;;
8478;SDS011;4276;49.354;6.804;2023-04-08T05:35:02;7.32;;;6.63;;
8478;SDS011;4276;49.354;6.804;2023-04-08T05:37:29;6.47;;;5.90;;
8478;SDS011;4276;49.354;6.804;2023-04-08T05:39:55;7.63;;;6.95;;
8478;SDS011;4276;49.354;6.804;2023-04-08T05:42:22;7.97;;;7.28;;
8478;SDS011;4276;49.354;6.804;2023-04-08T05:44:49;9.45;;;8.45;;
8478;SDS011;4276;49.354;6.804;2023-04-08T05:47:15;8.73;;;7.93;;
8478;SDS011;4276;49.354;6.804;2023-04-08T05:49:41;9.57;;;8.57;;
8478;SDS011;4276;49.354;6.804;2023-04-08T05:52:08;10.18;;;9.18;;
8478;SDS011;4276;49.354;6.804;2023-04-08T05:54:34;10.23;;;9.23;;
8478;SDS011;4276;49.354;6.804;2023-04-08T05:57:01;11.20;;;8.80;;
8478;SDS011;4276;49.354;6.804;2023-04-08T05:59:27;11.30;;;9.15;;
8478;SDS011;4276;49.354;6.804;2023-04-08T06:01:54;9.32;;;8.48;;
8478;SDS011;4276;49.354;6.804;2023-04-08T06:04:22;19.48;;;17.67;;
8478;SDS011;4276;49.354;6.804;2023-04-08T06:06:48;26.90;;;24.05;;
8478;SDS011;4276;49.354;6.804;2023-04-08T06:09:15;20.67;;;18.42;;
8478;SDS011;4276;49.354;6.804;2023-04-08T06:11:41;20.80;;;18.60;;
8478;SDS011;4276;49.354;6.804;2023-04-08T06:14:08;17.52;;;15.15;;
8478;SDS011;4276;49.354;6.804;2023-04-08T06:16:34;15.60;;;14.02;;
8478;SDS011;4276;49.354;6.804;2023-04-08T06:19:01;15.73;;;14.02;;
8478;SDS011;4276;49.354;6.804;2023-04-08T06:21:27;14.18;;;12.90;;
8478;SDS011;4276;49.354;6.804;2023-04-08T06:23:54;11.63;;;10.55;;
8478;SDS011;4276;49.354;6.804;2023-04-08T06:26:20;12.05;;;10.77;;
8478;SDS011;4276;49.354;6.804;2023-04-08T06:28:47;11.20;;;9.98;;
8478;SDS011;4276;49.354;6.804;2023-04-08T06:31:14;11.48;;;10.20;;
8478;SDS011;4276;49.354;6.804;2023-04-08T06:33:40;10.85;;;9.25;;
8478;SDS011;4276;49.354;6.804;2023-04-08T06:36:07;11.30;;;10.20;;
8478;SDS011;4276;49.354;6.804;2023-04-08T06:38:34;11.57;;;9.82;;
8478;SDS011;4276;49.354;6.804;2023-04-08T06:41:01;9.82;;;8.82;;
8478;SDS011;4276;49.354;6.804;2023-04-08T06:43:30;11.65;;;9.70;;
8478;SDS011;4276;49.354;6.804;2023-04-08T06:45:57;11.68;;;10.48;;
8478;SDS011;4276;49.354;6.804;2023-04-08T06:48:24;12.55;;;10.35;;
8478;SDS011;4276;49.354;6.804;2023-04-08T06:50:55;10.30;;;9.05;;
8478;SDS011;4276;49.354;6.804;2023-04-08T06:53:22;12.00;;;9.65;;
8478;SDS011;4276;49.354;6.804;2023-04-08T06:55:50;11.93;;;9.68;;
8478;SDS011;4276;49.354;6.804;2023-04-08T06:58:16;11.85;;;9.18;;
8478;SDS011;4276;49.354;6.804;2023-04-08T07:00:43;12.18;;;10.32;;
8478;SDS011;4276;49.354;6.804;2023-04-08T07:03:10;11.30;;;10.10;;
8478;SDS011;4276;49.354;6.804;2023-04-08T07:05:37;12.77;;;11.10;;
8478;SDS011;4276;49.354;6.804;2023-04-08T07:08:04;14.27;;;11.27;;
8478;SDS011;4276;49.354;6.804;2023-04-08T07:10:31;12.13;;;10.88;;
8478;SDS011;4276;49.354;6.804;2023-04-08T07:12:58;13.43;;;11.85;;
8478;SDS011;4276;49.354;6.804;2023-04-08T07:15:24;14.10;;;10.98;;
8478;SDS011;4276;49.354;6.804;2023-04-08T07:17:51;12.02;;;9.93;;
8478;SDS011;4276;49.354;6.804;2023-04-08T07:20:17;11.38;;;10.23;;
8478;SDS011;4276;49.354;6.804;2023-04-08T07:22:43;12.52;;;11.25;;
8478;SDS011;4276;49.354;6.804;2023-04-08T07:25:10;14.82;;;11.75;;
8478;SDS011;4276;49.354;6.804;2023-04-08T07:27:37;13.02;;;11.68;;
8478;SDS011;4276;49.354;6.804;2023-04-08T07:30:03;12.25;;;10.82;;
8478;SDS011;4276;49.354;6.804;2023-04-08T07:32:31;13.00;;;11.70;;
8478;SDS011;4276;49.354;6.804;2023-04-08T07:34:58;12.85;;;11.38;;
8478;SDS011;4276;49.354;6.804;2023-04-08T07:37:28;13.90;;;12.40;;
8478;SDS011;4276;49.354;6.804;2023-04-08T07:39:55;12.38;;;11.07;;
8478;SDS011;4276;49.354;6.804;2023-04-08T07:42:21;14.60;;;12.02;;
8478;SDS011;4276;49.354;6.804;2023-04-08T07:44:48;16.70;;;13.40;;
8478;SDS011;4276;49.354;6.804;2023-04-08T07:47:14;14.05;;;12.40;;
8478;SDS011;4276;49.354;6.804;2023-04-08T07:49:41;15.05;;;13.27;;
8478;SDS011;4276;49.354;6.804;2023-04-08T07:52:08;14.55;;;13.05;;
8478;SDS011;4276;49.354;6.804;2023-04-08T07:54:34;14.45;;;12.93;;
8478;SDS011;4276;49.354;6.804;2023-04-08T07:57:01;14.52;;;13.13;;
8478;SDS011;4276;49.354;6.804;2023-04-08T07:59:28;15.65;;;14.05;;
8478;SDS011;4276;49.354;6.804;2023-04-08T08:01:54;14.20;;;12.75;;
8478;SDS011;4276;49.354;6.804;2023-04-08T08:04:21;14.98;;;12.73;;
8478;SDS011;4276;49.354;6.804;2023-04-08T08:06:51;15.07;;;12.57;;
8478;SDS011;4276;49.354;6.804;2023-04-08T08:09:17;13.10;;;11.77;;
8478;SDS011;4276;49.354;6.804;2023-04-08T08:11:44;15.38;;;11.85;;
8478;SDS011;4276;49.354;6.804;2023-04-08T08:14:10;14.00;;;12.63;;
8478;SDS011;4276;49.354;6.804;2023-04-08T08:16:38;12.57;;;11.27;;
8478;SDS011;4276;49.354;6.804;2023-04-08T08:19:05;12.70;;;11.40;;
8478;SDS011;4276;49.354;6.804;2023-04-08T08:21:34;14.32;;;12.70;;
8478;SDS011;4276;49.354;6.804;2023-04-08T08:24:01;13.25;;;11.60;;
8478;SDS011;4276;49.354;6.804;2023-04-08T08:26:28;13.15;;;11.88;;
8478;SDS011;4276;49.354;6.804;2023-04-08T08:28:54;12.93;;;11.65;;
8478;SDS011;4276;49.354;6.804;2023-04-08T08:31:21;13.20;;;11.30;;
8478;SDS011;4276;49.354;6.804;2023-04-08T08:33:47;12.75;;;11.43;;
8478;SDS011;4276;49.354;6.804;2023-04-08T08:36:14;12.27;;;10.98;;
8478;SDS011;4276;49.354;6.804;2023-04-08T08:38:41;12.65;;;11.43;;
8478;SDS011;4276;49.354;6.804;2023-04-08T08:41:07;13.38;;;11.40;;
8478;SDS011;4276;49.354;6.804;2023-04-08T08:43:34;12.93;;;11.65;;
8478;SDS011;4276;49.354;6.804;2023-04-08T08:46:00;13.75;;;12.43;;
8478;SDS011;4276;49.354;6.804;2023-04-08T08:48:27;12.32;;;11.05;;
8478;SDS011;4276;49.354;6.804;2023-04-08T08:50:53;13.15;;;11.13;;
8478;SDS011;4276;49.354;6.804;2023-04-08T08:53:20;12.07;;;10.82;;
8478;SDS011;4276;49.354;6.804;2023-04-08T08:55:48;12.07;;;10.45;;
8478;SDS011;4276;49.354;6.804;2023-04-08T08:58:35;12.55;;;11.35;;
8478;SDS011;4276;49.354;6.804;2023-04-08T09:01:01;13.25;;;11.95;;
8478;SDS011;4276;49.354;6.804;2023-04-08T09:03:27;11.73;;;10.50;;
8478;SDS011;4276;49.354;6.804;2023-04-08T09:05:56;11.77;;;10.68;;
8478;SDS011;4276;49.354;6.804;2023-04-08T09:10:50;12.73;;;11.40;;
8478;SDS011;4276;49.354;6.804;2023-04-08T09:13:16;12.30;;;11.02;;
8478;SDS011;4276;49.354;6.804;2023-04-08T09:18:35;11.45;;;10.30;;
8478;SDS011;4276;49.354;6.804;2023-04-08T09:21:03;11.70;;;10.05;;
8478;SDS011;4276;49.354;6.804;2023-04-08T09:26:21;10.75;;;9.75;;
8478;SDS011;4276;49.354;6.804;2023-04-08T09:28:56;11.15;;;10.05;;
8478;SDS011;4276;49.354;6.804;2023-04-08T09:31:27;12.20;;;10.90;;
8478;SDS011;4276;49.354;6.804;2023-04-08T09:34:13;11.35;;;10.07;;
8478;SDS011;4276;49.354;6.804;2023-04-08T09:36:41;10.98;;;9.98;;
8478;SDS011;4276;49.354;6.804;2023-04-08T09:39:09;11.23;;;10.13;;
8478;SDS011;4276;49.354;6.804;2023-04-08T09:41:36;10.77;;;9.68;;
8478;SDS011;4276;49.354;6.804;2023-04-08T09:44:04;11.05;;;9.80;;
8478;SDS011;4276;49.354;6.804;2023-04-08T09:46:38;12.10;;;10.82;;
8478;SDS011;4276;49.354;6.804;2023-04-08T09:49:28;11.50;;;10.32;;
8478;SDS011;4276;49.354;6.804;2023-04-08T09:52:04;13.02;;;11.27;;
8478;SDS011;4276;49.354;6.804;2023-04-08T09:57:21;12.30;;;11.20;;
8478;SDS011;4276;49.354;6.804;2023-04-08T09:59:52;11.40;;;10.35;;
8478;SDS011;4276;49.354;6.804;2023-04-08T10:02:28;11.60;;;10.52;;
8478;SDS011;4276;49.354;6.804;2023-04-08T10:04:57;10.77;;;9.82;;
8478;SDS011;4276;49.354;6.804;2023-04-08T10:07:24;11.40;;;10.30;;
8478;SDS011;4276;49.354;6.804;2023-04-08T10:09:51;10.82;;;9.73;;
8478;SDS011;4276;49.354;6.804;2023-04-08T10:12:17;10.32;;;9.25;;
8478;SDS011;4276;49.354;6.804;2023-04-08T10:17:53;10.95;;;9.95;;
8478;SDS011;4276;49.354;6.804;2023-04-08T10:20:43;9.75;;;8.75;;
8478;SDS011;4276;49.354;6.804;2023-04-08T10:23:13;10.45;;;9.55;;
8478;SDS011;4276;49.354;6.804;2023-04-08T10:25:47;10.40;;;9.40;;
8478;SDS011;4276;49.354;6.804;2023-04-08T10:30:44;11.10;;;10.10;;
8478;SDS011;4276;49.354;6.804;2023-04-08T10:33:21;10.75;;;9.68;;
8478;SDS011;4276;49.354;6.804;2023-04-08T10:35:58;10.73;;;9.80;;
8478;SDS011;4276;49.354;6.804;2023-04-08T10:38:37;10.10;;;9.20;;
8478;SDS011;4276;49.354;6.804;2023-04-08T10:41:04;9.88;;;8.95;;
8478;SDS011;4276;49.354;6.804;2023-04-08T10:43:32;11.70;;;10.57;;
8478;SDS011;4276;49.354;6.804;2023-04-08T10:45:59;10.20;;;9.00;;
8478;SDS011;4276;49.354;6.804;2023-04-08T10:48:29;10.32;;;9.32;;
8478;SDS011;4276;49.354;6.804;2023-04-08T10:50:56;9.55;;;8.80;;
8478;SDS011;4276;49.354;6.804;2023-04-08T10:56:02;10.00;;;9.10;;
8478;SDS011;4276;49.354;6.804;2023-04-08T10:58:31;9.68;;;8.85;;
8478;SDS011;4276;49.354;6.804;2023-04-08T11:01:04;10.20;;;9.20;;
8478;SDS011;4276;49.354;6.804;2023-04-08T11:03:32;9.25;;;8.35;;
8478;SDS011;4276;49.354;6.804;2023-04-08T11:06:00;9.25;;;8.35;;
8478;SDS011;4276;49.354;6.804;2023-04-08T11:08:31;9.45;;;8.70;;
8478;SDS011;4276;49.354;6.804;2023-04-08T11:10:59;9.50;;;8.70;;
8478;SDS011;4276;49.354;6.804;2023-04-08T11:13:34;11.10;;;10.10;;
8478;SDS011;4276;49.354;6.804;2023-04-08T11:16:02;9.77;;;8.98;;
8478;SDS011;4276;49.354;6.804;2023-04-08T11:18:43;10.25;;;9.07;;
8478;SDS011;4276;49.354;6.804;2023-04-08T11:21:11;10.48;;;9.40;;
8478;SDS011;4276;49.354;6.804;2023-04-08T11:23:37;9.45;;;8.65;;
8478;SDS011;4276;49.354;6.804;2023-04-08T11:26:04;9.80;;;8.90;;
8478;SDS011;4276;49.354;6.804;2023-04-08T11:28:31;11.80;;;10.70;;
8478;SDS011;4276;49.354;6.804;2023-04-08T11:30:58;9.55;;;8.65;;
8478;SDS011;4276;49.354;6.804;2023-04-08T11:33:24;9.02;;;8.23;;
8478;SDS011;4276;49.354;6.804;2023-04-08T11:35:52;10.23;;;9.23;;
8478;SDS011;4276;49.354;6.804;2023-04-08T11:38:22;9.73;;;8.82;;
8478;SDS011;4276;49.354;6.804;2023-04-08T11:40:53;9.95;;;9.00;;
8478;SDS011;4276;49.354;6.804;2023-04-08T11:43:20;9.00;;;8.20;;
8478;SDS011;4276;49.354;6.804;2023-04-08T11:45:47;8.02;;;7.30;;
8478;SDS011;4276;49.354;6.804;2023-04-08T11:48:14;8.20;;;7.50;;
8478;SDS011;4276;49.354;6.804;2023-04-08T11:50:42;9.32;;;8.52;;
8478;SDS011;4276;49.354;6.804;2023-04-08T11:56:15;7.80;;;7.20;;
8478;SDS011;4276;49.354;6.804;2023-04-08T11:58:46;8.38;;;7.63;;
8478;SDS011;4276;49.354;6.804;2023-04-08T12:01:13;8.82;;;8.02;;
8478;SDS011;4276;49.354;6.804;2023-04-08T12:03:56;8.90;;;8.07;;
8478;SDS011;4276;49.354;6.804;2023-04-08T12:06:27;9.40;;;8.48;;
8478;SDS011;4276;49.354;6.804;2023-04-08T12:08:55;8.27;;;7.47;;
8478;SDS011;4276;49.354;6.804;2023-04-08T12:11:25;8.82;;;8.05;;
8478;SDS011;4276;49.354;6.804;2023-04-08T12:13:51;8.35;;;7.57;;
8478;SDS011;4276;49.354;6.804;2023-04-08T12:16:19;8.88;;;8.18;;
8478;SDS011;4276;49.354;6.804;2023-04-08T12:18:45;8.60;;;7.82;;
8478;SDS011;4276;49.354;6.804;2023-04-08T12:21:12;7.80;;;7.07;;
8478;SDS011;4276;49.354;6.804;2023-04-08T12:23:38;8.70;;;7.82;;
8478;SDS011;4276;49.354;6.804;2023-04-08T12:26:06;8.32;;;7.55;;
8478;SDS011;4276;49.354;6.804;2023-04-08T12:28:33;8.25;;;7.45;;
8478;SDS011;4276;49.354;6.804;2023-04-08T12:31:02;8.57;;;7.75;;
8478;SDS011;4276;49.354;6.804;2023-04-08T12:33:29;7.72;;;7.07;;
8478;SDS011;4276;49.354;6.804;2023-04-08T12:35:56;9.85;;;6.70;;
8478;SDS011;4276;49.354;6.804;2023-04-08T12:38:26;7.78;;;7.03;;
8478;SDS011;4276;49.354;6.804;2023-04-08T12:40:52;7.93;;;7.13;;
8478;SDS011;4276;49.354;6.804;2023-04-08T12:43:19;7.85;;;7.22;;
8478;SDS011;4276;49.354;6.804;2023-04-08T12:45:47;8.18;;;7.38;;
8478;SDS011;4276;49.354;6.804;2023-04-08T12:48:14;8.27;;;7.57;;
8478;SDS011;4276;49.354;6.804;2023-04-08T12:50:40;8.73;;;7.88;;
8478;SDS011;4276;49.354;6.804;2023-04-08T12:53:07;7.38;;;6.72;;
8478;SDS011;4276;49.354;6.804;2023-04-08T12:55:33;6.55;;;6.10;;
8478;SDS011;4276;49.354;6.804;2023-04-08T12:58:00;7.03;;;6.53;;
8478;SDS011;4276;49.354;6.804;2023-04-08T13:00:26;7.57;;;6.80;;
8478;SDS011;4276;49.354;6.804;2023-04-08T13:02:53;7.45;;;6.75;;
8478;SDS011;4276;49.354;6.804;2023-04-08T13:05:20;7.60;;;6.90;;
8478;SDS011;4276;49.354;6.804;2023-04-08T13:07:58;7.78;;;7.13;;
8478;SDS011;4276;49.354;6.804;2023-04-08T13:10:24;7.38;;;6.78;;
8478;SDS011;4276;49.354;6.804;2023-04-08T13:12:51;6.95;;;6.35;;
8478;SDS011;4276;49.354;6.804;2023-04-08T13:15:18;7.90;;;7.13;;
8478;SDS011;4276;49.354;6.804;2023-04-08T13:17:44;7.28;;;6.60;;
8478;SDS011;4276;49.354;6.804;2023-04-08T13:20:11;7.32;;;6.72;;
8478;SDS011;4276;49.354;6.804;2023-04-08T13:22:37;7.93;;;7.22;;
8478;SDS011;4276;49.354;6.804;2023-04-08T13:25:04;7.88;;;7.28;;
8478;SDS011;4276;49.354;6.804;2023-04-08T13:27:31;8.23;;;7.53;;
8478;SDS011;4276;49.354;6.804;2023-04-08T13:29:58;6.82;;;6.32;;
8478;SDS011;4276;49.354;6.804;2023-04-08T13:32:24;7.80;;;7.20;;
8478;SDS011;4276;49.354;6.804;2023-04-08T13:34:51;7.63;;;6.93;;
8478;SDS011;4276;49.354;6.804;2023-04-08T13:37:17;7.90;;;7.22;;
8478;SDS011;4276;49.354;6.804;2023-04-08T13:39:44;8.13;;;7.40;;
8478;SDS011;4276;49.354;6.804;2023-04-08T13:42:10;7.18;;;6.53;;
8478;SDS011;4276;49.354;6.804;2023-04-08T13:44:37;8.05;;;7.35;;
8478;SDS011;4276;49.354;6.804;2023-04-08T13:47:04;7.55;;;6.90;;
8478;SDS011;4276;49.354;6.804;2023-04-08T13:49:32;7.82;;;7.22;;
8478;SDS011;4276;49.354;6.804;2023-04-08T13:51:58;7.60;;;7.00;;
8478;SDS011;4276;49.354;6.804;2023-04-08T13:54:25;8.50;;;7.80;;
8478;SDS011;4276;49.354;6.804;2023-04-08T13:56:52;8.07;;;7.47;;
8478;SDS011;4276;49.354;6.804;2023-04-08T13:59:20;8.20;;;7.50;;
8478;SDS011;4276;49.354;6.804;2023-04-08T14:01:46;8.65;;;7.97;;
8478;SDS011;4276;49.354;6.804;2023-04-08T14:04:13;8.85;;;8.10;;
8478;SDS011;4276;49.354;6.804;2023-04-08T14:06:39;8.85;;;8.18;;
8478;SDS011;4276;49.354;6.804;2023-04-08T14:09:06;9.20;;;8.40;;
8478;SDS011;4276;49.354;6.804;2023-04-08T14:11:32;8.63;;;7.88;;
8478;SDS011;4276;49.354;6.804;2023-04-08T14:13:59;9.23;;;8.43;;
8478;SDS011;4276;49.354;6.804;2023-04-08T14:16:25;10.65;;;9.77;;
8478;SDS011;4276;49.354;6.804;2023-04-08T14:18:52;9.73;;;8.90;;
8478;SDS011;4276;49.354;6.804;2023-04-08T14:21:19;10.02;;;9.23;;
8478;SDS011;4276;49.354;6.804;2023-04-08T14:23:46;8.75;;;8.10;;
8478;SDS011;4276;49.354;6.804;2023-04-08T14:26:13;9.18;;;8.27;;
8478;SDS011;4276;49.354;6.804;2023-04-08T14:28:39;9.88;;;9.07;;
8478;SDS011;4276;49.354;6.804;2023-04-08T14:31:06;8.80;;;8.00;;
8478;SDS011;4276;49.354;6.804;2023-04-08T14:33:32;7.15;;;6.45;;
8478;SDS011;4276;49.354;6.804;2023-04-08T14:35:59;7.13;;;6.63;;
8478;SDS011;4276;49.354;6.804;2023-04-08T14:38:25;7.28;;;6.63;;
8478;SDS011;4276;49.354;6.804;2023-04-08T14:40:52;7.80;;;7.20;;
8478;SDS011;4276;49.354;6.804;2023-04-08T14:43:19;8.13;;;7.53;;
8478;SDS011;4276;49.354;6.804;2023-04-08T14:45:46;7.60;;;7.00;;
8478;SDS011;4276;49.354;6.804;2023-04-08T14:48:12;7.68;;;7.00;;
8478;SDS011;4276;49.354;6.804;2023-04-08T14:50:39;9.55;;;8.65;;
8478;SDS011;4276;49.354;6.804;2023-04-08T14:53:05;9.25;;;8.45;;
8478;SDS011;4276;49.354;6.804;2023-04-08T14:55:32;10.55;;;9.48;;
8478;SDS011;4276;49.354;6.804;2023-04-08T14:57:59;9.93;;;9.13;;
8478;SDS011;4276;49.354;6.804;2023-04-08T15:00:26;9.70;;;8.90;;
8478;SDS011;4276;49.354;6.804;2023-04-08T15:02:52;9.18;;;8.38;;
8478;SDS011;4276;49.354;6.804;2023-04-08T15:05:19;9.93;;;9.02;;
8478;SDS011;4276;49.354;6.804;2023-04-08T15:07:46;9.93;;;8.98;;
8478;SDS011;4276;49.354;6.804;2023-04-08T15:10:13;9.52;;;8.63;;
8478;SDS011;4276;49.354;6.804;2023-04-08T15:12:39;10.18;;;9.35;;
8478;SDS011;4276;49.354;6.804;2023-04-08T15:15:06;11.30;;;10.27;;
8478;SDS011;4276;49.354;6.804;2023-04-08T15:17:33;9.95;;;9.15;;
8478;SDS011;4276;49.354;6.804;2023-04-08T15:20:03;9.40;;;8.52;;
8478;SDS011;4276;49.354;6.804;2023-04-08T15:22:29;10.35;;;9.45;;
8478;SDS011;4276;49.354;6.804;2023-04-08T15:24:56;9.80;;;8.82;;
8478;SDS011;4276;49.354;6.804;2023-04-08T15:27:22;9.98;;;9.07;;
8478;SDS011;4276;49.354;6.804;2023-04-08T15:29:49;10.43;;;9.43;;
8478;SDS011;4276;49.354;6.804;2023-04-08T15:32:16;10.40;;;9.40;;
8478;SDS011;4276;49.354;6.804;2023-04-08T15:34:42;10.02;;;9.02;;
8478;SDS011;4276;49.354;6.804;2023-04-08T15:37:08;8.98;;;8.18;;